sensor_id;sensor_type;location;lat;lon;timestamp;P1;durP1;ratioP1;P2;durP2;ratioP2
2099;SDS011;1055;48.854;9.302;2022-11-12T00:01:20;19.40;;;13.00;;
2099;SDS011;1055;48.854;9.302;2022-11-12T00:03:46;18.03;;;12.63;;
2099;SDS011;1055;48.854;9.302;2022-11-12T00:06:12;19.43;;;13.77;;
2099;SDS011;1055;48.854;9.302;2022-11-12T00:08:37;16.13;;;11.90;;
2099;SDS011;1055;48.854;9.302;2022-11-12T00:11:03;18.20;;;11.73;;
2099;SDS011;1055;48.854;9.302;2022-11-12T00:13:29;18.07;;;13.17;;
2099;SDS011;1055;48.854;9.302;2022-11-12T00:15:55;16.10;;;11.52;;
2099;SDS011;1055;48.854;9.302;2022-11-12T00:18:21;19.07;;;12.60;;
2099;SDS011;1055;48.854;9.302;2022-11-12T00:20:47;18.30;;;12.47;;
2099;SDS011;1055;48.854;9.302;2022-11-12T00:23:13;15.73;;;11.27;;
2099;SDS011;1055;48.854;9.302;2022-11-12T00:25:38;18.57;;;12.67;;
2099;SDS011;1055;48.854;9.302;2022-11-12T00:28:05;16.67;;;12.00;;
2099;SDS011;1055;48.854;9.302;2022-11-12T00:30:33;14.73;;;11.98;;
2099;SDS011;1055;48.854;9.302;2022-11-12T00:33:01;17.65;;;13.18;;
2099;SDS011;1055;48.854;9.302;2022-11-12T00:35:28;17.45;;;12.40;;
2099;SDS011;1055;48.854;9.302;2022-11-12T00:37:55;16.92;;;12.73;;
2099;SDS011;1055;48.854;9.302;2022-11-12T00:40:21;19.45;;;13.15;;
2099;SDS011;1055;48.854;9.302;2022-11-12T00:42:48;16.40;;;11.70;;
2099;SDS011;1055;48.854;9.302;2022-11-12T00:45:15;17.90;;;12.95;;
2099;SDS011;1055;48.854;9.302;2022-11-12T00:47:40;18.83;;;12.30;;
2099;SDS011;1055;48.854;9.302;2022-11-12T00:50:06;14.80;;;10.80;;
2099;SDS011;1055;48.854;9.302;2022-11-12T00:52:32;18.48;;;11.98;;
2099;SDS011;1055;48.854;9.302;2022-11-12T00:54:58;16.00;;;11.73;;
2099;SDS011;1055;48.854;9.302;2022-11-12T00:57:23;16.70;;;12.90;;
2099;SDS011;1055;48.854;9.302;2022-11-12T00:59:49;17.67;;;12.37;;
2099;SDS011;1055;48.854;9.302;2022-11-12T01:02:14;18.20;;;11.97;;
2099;SDS011;1055;48.854;9.302;2022-11-12T01:04:40;17.57;;;12.50;;
2099;SDS011;1055;48.854;9.302;2022-11-12T01:07:05;17.63;;;12.33;;
2099;SDS011;1055;48.854;9.302;2022-11-12T01:09:31;15.43;;;12.00;;
2099;SDS011;1055;48.854;9.302;2022-11-12T01:11:57;17.97;;;11.97;;
2099;SDS011;1055;48.854;9.302;2022-11-12T01:14:22;16.17;;;12.00;;
2099;SDS011;1055;48.854;9.302;2022-11-12T01:16:48;18.97;;;13.23;;
2099;SDS011;1055;48.854;9.302;2022-11-12T01:19:13;19.27;;;12.13;;
2099;SDS011;1055;48.854;9.302;2022-11-12T01:21:40;18.17;;;12.73;;
2099;SDS011;1055;48.854;9.302;2022-11-12T01:24:07;15.93;;;11.65;;
2099;SDS011;1055;48.854;9.302;2022-11-12T01:26:33;16.92;;;12.00;;
2099;SDS011;1055;48.854;9.302;2022-11-12T01:28:59;17.25;;;12.25;;
2099;SDS011;1055;48.854;9.302;2022-11-12T01:31:26;18.43;;;12.37;;
2099;SDS011;1055;48.854;9.302;2022-11-12T01:33:58;15.82;;;11.60;;
2099;SDS011;1055;48.854;9.302;2022-11-12T01:36:27;17.35;;;12.32;;
2099;SDS011;1055;48.854;9.302;2022-11-12T01:38:57;14.95;;;11.27;;
2099;SDS011;1055;48.854;9.302;2022-11-12T01:41:24;16.30;;;11.63;;
2099;SDS011;1055;48.854;9.302;2022-11-12T01:44:11;18.40;;;12.15;;
2099;SDS011;1055;48.854;9.302;2022-11-12T01:49:26;17.50;;;12.55;;
2099;SDS011;1055;48.854;9.302;2022-11-12T01:52:19;16.40;;;12.48;;
2099;SDS011;1055;48.854;9.302;2022-11-12T01:54:49;17.20;;;11.90;;
2099;SDS011;1055;48.854;9.302;2022-11-12T01:57:18;16.80;;;12.13;;
2099;SDS011;1055;48.854;9.302;2022-11-12T01:59:49;17.95;;;12.45;;
2099;SDS011;1055;48.854;9.302;2022-11-12T02:02:20;19.13;;;12.93;;
2099;SDS011;1055;48.854;9.302;2022-11-12T02:04:46;16.55;;;11.82;;
2099;SDS011;1055;48.854;9.302;2022-11-12T02:07:12;18.40;;;13.35;;
2099;SDS011;1055;48.854;9.302;2022-11-12T02:09:39;19.42;;;13.95;;
2099;SDS011;1055;48.854;9.302;2022-11-12T02:12:05;16.20;;;12.68;;
2099;SDS011;1055;48.854;9.302;2022-11-12T02:14:31;18.73;;;12.67;;
2099;SDS011;1055;48.854;9.302;2022-11-12T02:16:58;17.13;;;11.93;;
2099;SDS011;1055;48.854;9.302;2022-11-12T02:19:24;17.88;;;13.52;;
2099;SDS011;1055;48.854;9.302;2022-11-12T02:21:50;18.27;;;13.20;;
2099;SDS011;1055;48.854;9.302;2022-11-12T02:26:43;20.63;;;14.17;;
2099;SDS011;1055;48.854;9.302;2022-11-12T02:29:11;21.05;;;12.90;;
2099;SDS011;1055;48.854;9.302;2022-11-12T02:31:37;16.30;;;10.93;;
2099;SDS011;1055;48.854;9.302;2022-11-12T02:34:02;17.80;;;12.03;;
2099;SDS011;1055;48.854;9.302;2022-11-12T02:36:28;26.80;;;12.50;;
2099;SDS011;1055;48.854;9.302;2022-11-12T02:38:54;18.48;;;12.30;;
2099;SDS011;1055;48.854;9.302;2022-11-12T02:41:20;16.67;;;11.90;;
2099;SDS011;1055;48.854;9.302;2022-11-12T02:43:46;17.40;;;11.97;;
2099;SDS011;1055;48.854;9.302;2022-11-12T02:46:12;19.13;;;14.20;;
2099;SDS011;1055;48.854;9.302;2022-11-12T02:48:38;17.13;;;12.35;;
2099;SDS011;1055;48.854;9.302;2022-11-12T02:51:04;18.73;;;12.83;;
2099;SDS011;1055;48.854;9.302;2022-11-12T02:53:30;19.02;;;12.77;;
2099;SDS011;1055;48.854;9.302;2022-11-12T02:55:56;15.83;;;11.63;;
2099;SDS011;1055;48.854;9.302;2022-11-12T02:58:23;19.75;;;13.43;;
2099;SDS011;1055;48.854;9.302;2022-11-12T03:00:48;16.90;;;11.80;;
2099;SDS011;1055;48.854;9.302;2022-11-12T03:03:14;19.53;;;12.50;;
2099;SDS011;1055;48.854;9.302;2022-11-12T03:05:40;21.50;;;13.23;;
2099;SDS011;1055;48.854;9.302;2022-11-12T03:08:06;18.63;;;13.20;;
2099;SDS011;1055;48.854;9.302;2022-11-12T03:10:33;19.85;;;13.15;;
2099;SDS011;1055;48.854;9.302;2022-11-12T03:13:02;18.95;;;12.88;;
2099;SDS011;1055;48.854;9.302;2022-11-12T03:15:28;21.40;;;14.03;;
2099;SDS011;1055;48.854;9.302;2022-11-12T03:17:55;16.85;;;13.05;;
2099;SDS011;1055;48.854;9.302;2022-11-12T03:20:22;18.60;;;12.32;;
2099;SDS011;1055;48.854;9.302;2022-11-12T03:23:04;18.67;;;13.57;;
2099;SDS011;1055;48.854;9.302;2022-11-12T03:25:32;18.00;;;12.38;;
2099;SDS011;1055;48.854;9.302;2022-11-12T03:30:29;17.75;;;12.50;;
2099;SDS011;1055;48.854;9.302;2022-11-12T03:32:57;17.92;;;12.05;;
2099;SDS011;1055;48.854;9.302;2022-11-12T03:35:23;17.90;;;12.03;;
2099;SDS011;1055;48.854;9.302;2022-11-12T03:37:50;18.00;;;12.00;;
2099;SDS011;1055;48.854;9.302;2022-11-12T03:40:16;16.47;;;11.40;;
2099;SDS011;1055;48.854;9.302;2022-11-12T03:42:45;18.15;;;12.30;;
2099;SDS011;1055;48.854;9.302;2022-11-12T03:45:13;17.58;;;12.50;;
2099;SDS011;1055;48.854;9.302;2022-11-12T03:47:46;19.20;;;12.95;;
2099;SDS011;1055;48.854;9.302;2022-11-12T03:50:13;18.35;;;11.35;;
2099;SDS011;1055;48.854;9.302;2022-11-12T03:52:44;19.42;;;12.35;;
2099;SDS011;1055;48.854;9.302;2022-11-12T03:55:11;17.33;;;11.98;;
2099;SDS011;1055;48.854;9.302;2022-11-12T03:57:37;17.92;;;12.65;;
2099;SDS011;1055;48.854;9.302;2022-11-12T04:00:04;18.97;;;12.77;;
2099;SDS011;1055;48.854;9.302;2022-11-12T04:02:31;19.75;;;12.70;;
2099;SDS011;1055;48.854;9.302;2022-11-12T04:04:56;17.13;;;12.17;;
2099;SDS011;1055;48.854;9.302;2022-11-12T04:07:40;18.60;;;12.20;;
2099;SDS011;1055;48.854;9.302;2022-11-12T04:10:24;21.27;;;12.57;;
2099;SDS011;1055;48.854;9.302;2022-11-12T04:12:50;20.00;;;12.90;;
2099;SDS011;1055;48.854;9.302;2022-11-12T04:15:35;19.48;;;13.85;;
2099;SDS011;1055;48.854;9.302;2022-11-12T04:18:00;18.50;;;12.33;;
2099;SDS011;1055;48.854;9.302;2022-11-12T04:20:44;18.75;;;13.07;;
2099;SDS011;1055;48.854;9.302;2022-11-12T04:23:29;17.75;;;11.93;;
2099;SDS011;1055;48.854;9.302;2022-11-12T04:25:54;17.87;;;12.70;;
2099;SDS011;1055;48.854;9.302;2022-11-12T04:28:38;21.23;;;12.93;;
2099;SDS011;1055;48.854;9.302;2022-11-12T04:31:24;16.73;;;11.48;;
2099;SDS011;1055;48.854;9.302;2022-11-12T04:33:50;20.40;;;12.20;;
2099;SDS011;1055;48.854;9.302;2022-11-12T04:36:15;17.10;;;11.87;;
2099;SDS011;1055;48.854;9.302;2022-11-12T04:38:41;16.93;;;11.57;;
2099;SDS011;1055;48.854;9.302;2022-11-12T04:41:06;17.87;;;12.57;;
2099;SDS011;1055;48.854;9.302;2022-11-12T04:43:51;18.40;;;12.55;;
2099;SDS011;1055;48.854;9.302;2022-11-12T04:46:35;18.10;;;11.52;;
2099;SDS011;1055;48.854;9.302;2022-11-12T04:49:01;17.57;;;11.20;;
2099;SDS011;1055;48.854;9.302;2022-11-12T04:51:27;17.23;;;11.90;;
2099;SDS011;1055;48.854;9.302;2022-11-12T04:54:13;17.95;;;11.50;;
2099;SDS011;1055;48.854;9.302;2022-11-12T04:56:38;18.90;;;12.60;;
2099;SDS011;1055;48.854;9.302;2022-11-12T04:59:04;15.47;;;11.90;;
2099;SDS011;1055;48.854;9.302;2022-11-12T05:01:30;16.57;;;11.23;;
2099;SDS011;1055;48.854;9.302;2022-11-12T05:03:55;16.73;;;12.00;;
2099;SDS011;1055;48.854;9.302;2022-11-12T05:06:21;19.10;;;11.43;;
2099;SDS011;1055;48.854;9.302;2022-11-12T05:09:05;17.77;;;10.88;;
2099;SDS011;1055;48.854;9.302;2022-11-12T05:11:31;17.83;;;11.10;;
2099;SDS011;1055;48.854;9.302;2022-11-12T05:13:56;16.57;;;10.53;;
2099;SDS011;1055;48.854;9.302;2022-11-12T05:16:22;18.70;;;12.50;;
2099;SDS011;1055;48.854;9.302;2022-11-12T05:18:47;18.53;;;11.93;;
2099;SDS011;1055;48.854;9.302;2022-11-12T05:21:13;19.17;;;12.93;;
2099;SDS011;1055;48.854;9.302;2022-11-12T05:23:57;16.33;;;11.60;;
2099;SDS011;1055;48.854;9.302;2022-11-12T05:26:23;17.00;;;11.10;;
2099;SDS011;1055;48.854;9.302;2022-11-12T05:28:48;18.77;;;13.00;;
2099;SDS011;1055;48.854;9.302;2022-11-12T05:31:14;20.00;;;13.33;;
2099;SDS011;1055;48.854;9.302;2022-11-12T05:33:40;16.13;;;12.00;;
2099;SDS011;1055;48.854;9.302;2022-11-12T05:36:05;21.93;;;12.97;;
2099;SDS011;1055;48.854;9.302;2022-11-12T05:38:31;22.87;;;13.23;;
2099;SDS011;1055;48.854;9.302;2022-11-12T05:40:57;19.83;;;13.20;;
2099;SDS011;1055;48.854;9.302;2022-11-12T05:43:22;20.73;;;13.90;;
2099;SDS011;1055;48.854;9.302;2022-11-12T05:45:48;21.10;;;13.60;;
2099;SDS011;1055;48.854;9.302;2022-11-12T05:48:13;20.67;;;12.93;;
2099;SDS011;1055;48.854;9.302;2022-11-12T05:50:39;18.77;;;12.13;;
2099;SDS011;1055;48.854;9.302;2022-11-12T05:53:04;22.40;;;13.93;;
2099;SDS011;1055;48.854;9.302;2022-11-12T05:55:30;18.20;;;12.27;;
2099;SDS011;1055;48.854;9.302;2022-11-12T05:57:55;17.13;;;11.40;;
2099;SDS011;1055;48.854;9.302;2022-11-12T06:00:21;17.80;;;12.20;;
2099;SDS011;1055;48.854;9.302;2022-11-12T06:02:47;18.57;;;12.87;;
2099;SDS011;1055;48.854;9.302;2022-11-12T06:05:12;17.30;;;11.67;;
2099;SDS011;1055;48.854;9.302;2022-11-12T06:07:38;19.73;;;13.00;;
2099;SDS011;1055;48.854;9.302;2022-11-12T06:10:04;15.90;;;11.88;;
2099;SDS011;1055;48.854;9.302;2022-11-12T06:12:30;23.52;;;15.32;;
2099;SDS011;1055;48.854;9.302;2022-11-12T06:14:56;20.17;;;13.20;;
2099;SDS011;1055;48.854;9.302;2022-11-12T06:17:22;18.40;;;12.50;;
2099;SDS011;1055;48.854;9.302;2022-11-12T06:19:47;17.77;;;12.40;;
2099;SDS011;1055;48.854;9.302;2022-11-12T06:22:13;19.33;;;13.83;;
2099;SDS011;1055;48.854;9.302;2022-11-12T06:24:38;18.47;;;12.70;;
2099;SDS011;1055;48.854;9.302;2022-11-12T06:27:04;18.17;;;12.13;;
2099;SDS011;1055;48.854;9.302;2022-11-12T06:29:29;17.70;;;12.70;;
2099;SDS011;1055;48.854;9.302;2022-11-12T06:31:55;21.90;;;15.57;;
2099;SDS011;1055;48.854;9.302;2022-11-12T06:34:21;19.57;;;15.07;;
2099;SDS011;1055;48.854;9.302;2022-11-12T06:36:46;24.10;;;14.40;;
2099;SDS011;1055;48.854;9.302;2022-11-12T06:39:12;21.63;;;15.32;;
2099;SDS011;1055;48.854;9.302;2022-11-12T06:41:38;23.60;;;17.17;;
2099;SDS011;1055;48.854;9.302;2022-11-12T06:44:04;23.00;;;16.67;;
2099;SDS011;1055;48.854;9.302;2022-11-12T06:46:30;21.17;;;13.43;;
2099;SDS011;1055;48.854;9.302;2022-11-12T06:48:55;20.57;;;13.93;;
2099;SDS011;1055;48.854;9.302;2022-11-12T06:51:21;24.20;;;17.77;;
2099;SDS011;1055;48.854;9.302;2022-11-12T06:53:47;24.33;;;17.23;;
2099;SDS011;1055;48.854;9.302;2022-11-12T06:56:13;26.02;;;16.40;;
2099;SDS011;1055;48.854;9.302;2022-11-12T06:58:39;26.30;;;18.05;;
2099;SDS011;1055;48.854;9.302;2022-11-12T07:01:09;28.83;;;18.87;;
2099;SDS011;1055;48.854;9.302;2022-11-12T07:03:36;27.08;;;18.23;;
2099;SDS011;1055;48.854;9.302;2022-11-12T07:06:02;27.90;;;19.03;;
2099;SDS011;1055;48.854;9.302;2022-11-12T07:08:29;29.10;;;20.13;;
2099;SDS011;1055;48.854;9.302;2022-11-12T07:10:55;26.15;;;17.23;;
2099;SDS011;1055;48.854;9.302;2022-11-12T07:13:22;21.55;;;16.20;;
2099;SDS011;1055;48.854;9.302;2022-11-12T07:15:47;23.30;;;16.23;;
2099;SDS011;1055;48.854;9.302;2022-11-12T07:18:13;21.93;;;15.10;;
2099;SDS011;1055;48.854;9.302;2022-11-12T07:20:39;24.57;;;14.63;;
2099;SDS011;1055;48.854;9.302;2022-11-12T07:23:04;24.40;;;15.77;;
2099;SDS011;1055;48.854;9.302;2022-11-12T07:25:30;25.53;;;16.23;;
2099;SDS011;1055;48.854;9.302;2022-11-12T07:27:55;29.73;;;20.50;;
2099;SDS011;1055;48.854;9.302;2022-11-12T07:30:21;28.17;;;20.67;;
2099;SDS011;1055;48.854;9.302;2022-11-12T07:32:47;28.70;;;21.17;;
2099;SDS011;1055;48.854;9.302;2022-11-12T07:35:12;31.33;;;21.93;;
2099;SDS011;1055;48.854;9.302;2022-11-12T07:37:38;40.23;;;28.10;;
2099;SDS011;1055;48.854;9.302;2022-11-12T07:40:04;34.73;;;21.67;;
2099;SDS011;1055;48.854;9.302;2022-11-12T07:42:33;31.40;;;21.80;;
2099;SDS011;1055;48.854;9.302;2022-11-12T07:44:59;26.60;;;18.27;;
2099;SDS011;1055;48.854;9.302;2022-11-12T07:47:25;20.42;;;14.50;;
2099;SDS011;1055;48.854;9.302;2022-11-12T07:49:51;19.25;;;13.98;;
2099;SDS011;1055;48.854;9.302;2022-11-12T07:52:17;20.50;;;14.70;;
2099;SDS011;1055;48.854;9.302;2022-11-12T07:54:42;19.33;;;13.93;;
2099;SDS011;1055;48.854;9.302;2022-11-12T07:57:08;16.83;;;11.50;;
2099;SDS011;1055;48.854;9.302;2022-11-12T07:59:33;17.90;;;12.10;;
2099;SDS011;1055;48.854;9.302;2022-11-12T08:01:59;17.40;;;11.93;;
2099;SDS011;1055;48.854;9.302;2022-11-12T08:04:25;17.27;;;11.50;;
2099;SDS011;1055;48.854;9.302;2022-11-12T08:06:50;18.70;;;12.53;;
2099;SDS011;1055;48.854;9.302;2022-11-12T08:09:16;15.43;;;10.80;;
2099;SDS011;1055;48.854;9.302;2022-11-12T08:11:42;17.40;;;12.10;;
2099;SDS011;1055;48.854;9.302;2022-11-12T08:14:08;20.23;;;13.10;;
2099;SDS011;1055;48.854;9.302;2022-11-12T08:16:33;18.00;;;11.83;;
2099;SDS011;1055;48.854;9.302;2022-11-12T08:18:59;16.13;;;12.07;;
2099;SDS011;1055;48.854;9.302;2022-11-12T08:21:25;19.35;;;12.20;;
2099;SDS011;1055;48.854;9.302;2022-11-12T08:23:51;17.40;;;12.93;;
2099;SDS011;1055;48.854;9.302;2022-11-12T08:26:17;17.07;;;11.70;;
2099;SDS011;1055;48.854;9.302;2022-11-12T08:28:44;18.65;;;11.90;;
2099;SDS011;1055;48.854;9.302;2022-11-12T08:31:17;18.23;;;11.90;;
2099;SDS011;1055;48.854;9.302;2022-11-12T08:33:44;18.35;;;12.32;;
2099;SDS011;1055;48.854;9.302;2022-11-12T08:36:10;17.37;;;11.77;;
2099;SDS011;1055;48.854;9.302;2022-11-12T08:38:38;19.63;;;12.68;;
2099;SDS011;1055;48.854;9.302;2022-11-12T08:41:04;16.63;;;11.15;;
2099;SDS011;1055;48.854;9.302;2022-11-12T08:43:32;17.60;;;11.95;;
2099;SDS011;1055;48.854;9.302;2022-11-12T08:45:58;17.17;;;12.03;;
2099;SDS011;1055;48.854;9.302;2022-11-12T08:48:25;15.70;;;11.30;;
2099;SDS011;1055;48.854;9.302;2022-11-12T08:50:51;16.17;;;10.27;;
2099;SDS011;1055;48.854;9.302;2022-11-12T08:53:17;14.53;;;10.93;;
2099;SDS011;1055;48.854;9.302;2022-11-12T08:55:43;14.47;;;10.10;;
2099;SDS011;1055;48.854;9.302;2022-11-12T08:58:08;14.20;;;10.07;;
2099;SDS011;1055;48.854;9.302;2022-11-12T09:00:36;14.25;;;9.98;;
2099;SDS011;1055;48.854;9.302;2022-11-12T09:03:04;15.38;;;9.77;;
2099;SDS011;1055;48.854;9.302;2022-11-12T09:05:32;15.68;;;10.85;;
2099;SDS011;1055;48.854;9.302;2022-11-12T09:08:06;16.02;;;10.35;;
2099;SDS011;1055;48.854;9.302;2022-11-12T09:10:36;15.02;;;9.75;;
2099;SDS011;1055;48.854;9.302;2022-11-12T09:13:02;14.70;;;9.88;;
2099;SDS011;1055;48.854;9.302;2022-11-12T09:15:28;18.23;;;9.60;;
2099;SDS011;1055;48.854;9.302;2022-11-12T09:17:55;15.38;;;9.73;;
2099;SDS011;1055;48.854;9.302;2022-11-12T09:20:22;16.40;;;10.90;;
2099;SDS011;1055;48.854;9.302;2022-11-12T09:22:48;13.98;;;9.15;;
2099;SDS011;1055;48.854;9.302;2022-11-12T09:25:14;13.60;;;9.17;;
2099;SDS011;1055;48.854;9.302;2022-11-12T09:27:40;16.67;;;9.77;;
2099;SDS011;1055;48.854;9.302;2022-11-12T09:30:05;14.03;;;8.50;;
2099;SDS011;1055;48.854;9.302;2022-11-12T09:32:32;14.05;;;8.05;;
2099;SDS011;1055;48.854;9.302;2022-11-12T09:34:57;13.80;;;8.90;;
2099;SDS011;1055;48.854;9.302;2022-11-12T09:37:23;14.00;;;8.63;;
2099;SDS011;1055;48.854;9.302;2022-11-12T09:39:48;12.10;;;8.17;;
2099;SDS011;1055;48.854;9.302;2022-11-12T09:42:18;12.17;;;7.93;;
2099;SDS011;1055;48.854;9.302;2022-11-12T09:44:56;14.80;;;8.38;;
2099;SDS011;1055;48.854;9.302;2022-11-12T09:47:37;12.20;;;8.10;;
2099;SDS011;1055;48.854;9.302;2022-11-12T09:50:30;11.88;;;7.80;;
2099;SDS011;1055;48.854;9.302;2022-11-12T09:53:01;12.70;;;8.45;;
2099;SDS011;1055;48.854;9.302;2022-11-12T09:55:43;12.82;;;8.57;;
2099;SDS011;1055;48.854;9.302;2022-11-12T09:58:13;13.05;;;8.20;;
2099;SDS011;1055;48.854;9.302;2022-11-12T10:00:40;12.40;;;7.97;;
2099;SDS011;1055;48.854;9.302;2022-11-12T10:09:52;11.10;;;7.70;;
2099;SDS011;1055;48.854;9.302;2022-11-12T10:12:40;13.98;;;7.90;;
2099;SDS011;1055;48.854;9.302;2022-11-12T10:15:30;12.25;;;7.50;;
2099;SDS011;1055;48.854;9.302;2022-11-12T10:18:42;11.02;;;8.10;;
2099;SDS011;1055;48.854;9.302;2022-11-12T10:23:47;12.27;;;7.70;;
2099;SDS011;1055;48.854;9.302;2022-11-12T10:26:17;10.98;;;7.47;;
2099;SDS011;1055;48.854;9.302;2022-11-12T10:28:49;9.98;;;7.32;;
2099;SDS011;1055;48.854;9.302;2022-11-12T10:31:33;10.90;;;7.45;;
2099;SDS011;1055;48.854;9.302;2022-11-12T10:34:16;13.00;;;7.33;;
2099;SDS011;1055;48.854;9.302;2022-11-12T10:36:47;12.00;;;7.93;;
2099;SDS011;1055;48.854;9.302;2022-11-12T10:39:33;10.90;;;7.32;;
2099;SDS011;1055;48.854;9.302;2022-11-12T10:42:02;12.50;;;6.32;;
2099;SDS011;1055;48.854;9.302;2022-11-12T10:44:36;9.85;;;7.25;;
2099;SDS011;1055;48.854;9.302;2022-11-12T10:52:27;12.05;;;6.97;;
2099;SDS011;1055;48.854;9.302;2022-11-12T10:55:03;10.40;;;7.03;;
2099;SDS011;1055;48.854;9.302;2022-11-12T10:57:29;14.90;;;8.38;;
2099;SDS011;1055;48.854;9.302;2022-11-12T11:02:47;13.27;;;7.25;;
2099;SDS011;1055;48.854;9.302;2022-11-12T11:05:26;12.88;;;7.78;;
2099;SDS011;1055;48.854;9.302;2022-11-12T11:08:12;11.52;;;7.45;;
2099;SDS011;1055;48.854;9.302;2022-11-12T11:10:38;11.00;;;7.30;;
2099;SDS011;1055;48.854;9.302;2022-11-12T11:13:25;12.40;;;8.00;;
2099;SDS011;1055;48.854;9.302;2022-11-12T11:15:56;12.40;;;8.27;;
2099;SDS011;1055;48.854;9.302;2022-11-12T11:18:24;10.32;;;6.78;;
2099;SDS011;1055;48.854;9.302;2022-11-12T11:20:52;10.90;;;7.27;;
2099;SDS011;1055;48.854;9.302;2022-11-12T11:23:36;10.75;;;7.10;;
2099;SDS011;1055;48.854;9.302;2022-11-12T11:26:22;9.65;;;6.70;;
2099;SDS011;1055;48.854;9.302;2022-11-12T11:29:14;10.50;;;6.88;;
2099;SDS011;1055;48.854;9.302;2022-11-12T11:34:30;10.45;;;7.15;;
2099;SDS011;1055;48.854;9.302;2022-11-12T11:39:59;12.90;;;7.50;;
2099;SDS011;1055;48.854;9.302;2022-11-12T11:45:19;11.90;;;6.80;;
2099;SDS011;1055;48.854;9.302;2022-11-12T11:48:21;11.25;;;7.40;;
2099;SDS011;1055;48.854;9.302;2022-11-12T11:51:14;11.40;;;7.30;;
2099;SDS011;1055;48.854;9.302;2022-11-12T11:56:35;10.00;;;7.57;;
2099;SDS011;1055;48.854;9.302;2022-11-12T12:12:20;10.60;;;6.63;;
2099;SDS011;1055;48.854;9.302;2022-11-12T12:25:24;11.67;;;7.70;;
2099;SDS011;1055;48.854;9.302;2022-11-12T12:28:01;10.50;;;6.95;;
2099;SDS011;1055;48.854;9.302;2022-11-12T12:30:35;11.97;;;7.70;;
2099;SDS011;1055;48.854;9.302;2022-11-12T12:38:16;11.80;;;7.50;;
2099;SDS011;1055;48.854;9.302;2022-11-12T12:41:11;9.80;;;7.40;;
2099;SDS011;1055;48.854;9.302;2022-11-12T12:46:03;13.43;;;7.10;;
2099;SDS011;1055;48.854;9.302;2022-11-12T12:48:31;13.17;;;8.40;;
2099;SDS011;1055;48.854;9.302;2022-11-12T12:51:00;13.03;;;7.83;;
2099;SDS011;1055;48.854;9.302;2022-11-12T12:55:58;10.40;;;7.00;;
2099;SDS011;1055;48.854;9.302;2022-11-12T12:58:30;11.17;;;7.17;;
2099;SDS011;1055;48.854;9.302;2022-11-12T13:01:01;11.73;;;7.50;;
2099;SDS011;1055;48.854;9.302;2022-11-12T13:06:15;9.90;;;6.90;;
2099;SDS011;1055;48.854;9.302;2022-11-12T13:08:49;16.40;;;8.60;;
2099;SDS011;1055;48.854;9.302;2022-11-12T13:16:56;10.80;;;7.77;;
2099;SDS011;1055;48.854;9.302;2022-11-12T13:19:27;10.50;;;7.60;;
2099;SDS011;1055;48.854;9.302;2022-11-12T13:22:54;9.80;;;6.63;;
2099;SDS011;1055;48.854;9.302;2022-11-12T13:37:52;9.40;;;6.30;;
2099;SDS011;1055;48.854;9.302;2022-11-12T13:45:45;11.80;;;7.60;;
2099;SDS011;1055;48.854;9.302;2022-11-12T13:50:55;11.63;;;7.77;;
2099;SDS011;1055;48.854;9.302;2022-11-12T13:53:26;10.77;;;7.50;;
2099;SDS011;1055;48.854;9.302;2022-11-12T13:55:54;11.33;;;7.83;;
2099;SDS011;1055;48.854;9.302;2022-11-12T13:58:30;11.40;;;9.00;;
2099;SDS011;1055;48.854;9.302;2022-11-12T14:00:58;10.83;;;7.60;;
2099;SDS011;1055;48.854;9.302;2022-11-12T14:03:27;11.83;;;8.23;;
2099;SDS011;1055;48.854;9.302;2022-11-12T14:17:42;11.73;;;8.23;;
2099;SDS011;1055;48.854;9.302;2022-11-12T14:20:32;12.53;;;8.33;;
2099;SDS011;1055;48.854;9.302;2022-11-12T14:23:15;10.67;;;8.23;;
2099;SDS011;1055;48.854;9.302;2022-11-12T14:25:50;12.03;;;8.17;;
2099;SDS011;1055;48.854;9.302;2022-11-12T14:28:25;15.40;;;10.20;;
2099;SDS011;1055;48.854;9.302;2022-11-12T14:30:59;11.23;;;8.37;;
2099;SDS011;1055;48.854;9.302;2022-11-12T14:33:26;12.20;;;8.80;;
2099;SDS011;1055;48.854;9.302;2022-11-12T14:36:00;14.43;;;9.70;;
2099;SDS011;1055;48.854;9.302;2022-11-12T14:39:03;11.93;;;8.83;;
2099;SDS011;1055;48.854;9.302;2022-11-12T14:41:23;12.60;;;10.00;;
2099;SDS011;1055;48.854;9.302;2022-11-12T14:43:55;14.53;;;10.80;;
2099;SDS011;1055;48.854;9.302;2022-11-12T14:46:26;14.40;;;10.23;;
2099;SDS011;1055;48.854;9.302;2022-11-12T14:51:42;14.43;;;11.20;;
2099;SDS011;1055;48.854;9.302;2022-11-12T14:54:14;14.37;;;11.30;;
2099;SDS011;1055;48.854;9.302;2022-11-12T14:56:48;13.70;;;10.47;;
2099;SDS011;1055;48.854;9.302;2022-11-12T14:59:14;17.83;;;14.57;;
2099;SDS011;1055;48.854;9.302;2022-11-12T15:02:00;16.00;;;13.50;;
2099;SDS011;1055;48.854;9.302;2022-11-12T15:04:38;17.00;;;12.97;;
2099;SDS011;1055;48.854;9.302;2022-11-12T15:07:26;14.90;;;12.10;;
2099;SDS011;1055;48.854;9.302;2022-11-12T15:13:18;15.83;;;11.83;;
2099;SDS011;1055;48.854;9.302;2022-11-12T15:15:51;15.57;;;12.73;;
2099;SDS011;1055;48.854;9.302;2022-11-12T15:18:25;15.77;;;12.50;;
2099;SDS011;1055;48.854;9.302;2022-11-12T15:23:55;15.97;;;13.03;;
2099;SDS011;1055;48.854;9.302;2022-11-12T15:29:11;16.47;;;13.90;;
2099;SDS011;1055;48.854;9.302;2022-11-12T15:36:55;16.80;;;14.40;;
2099;SDS011;1055;48.854;9.302;2022-11-12T15:39:24;21.90;;;14.93;;
2099;SDS011;1055;48.854;9.302;2022-11-12T15:41:57;19.33;;;15.52;;
2099;SDS011;1055;48.854;9.302;2022-11-12T15:44:26;20.23;;;15.20;;
2099;SDS011;1055;48.854;9.302;2022-11-12T15:46:58;19.02;;;16.08;;
2099;SDS011;1055;48.854;9.302;2022-11-12T15:49:24;18.33;;;16.33;;
2099;SDS011;1055;48.854;9.302;2022-11-12T15:51:50;16.40;;;14.10;;
2099;SDS011;1055;48.854;9.302;2022-11-12T15:54:16;18.40;;;15.30;;
2099;SDS011;1055;48.854;9.302;2022-11-12T15:56:41;22.50;;;16.03;;
2099;SDS011;1055;48.854;9.302;2022-11-12T15:59:08;19.67;;;15.87;;
2099;SDS011;1055;48.854;9.302;2022-11-12T16:01:40;18.57;;;15.20;;
2099;SDS011;1055;48.854;9.302;2022-11-12T16:04:06;19.93;;;16.00;;
2099;SDS011;1055;48.854;9.302;2022-11-12T16:06:33;18.33;;;15.80;;
2099;SDS011;1055;48.854;9.302;2022-11-12T16:08:58;19.80;;;16.53;;
2099;SDS011;1055;48.854;9.302;2022-11-12T16:11:24;23.80;;;18.70;;
2099;SDS011;1055;48.854;9.302;2022-11-12T16:14:05;23.42;;;18.92;;
2099;SDS011;1055;48.854;9.302;2022-11-12T16:16:35;24.73;;;21.00;;
2099;SDS011;1055;48.854;9.302;2022-11-12T16:19:07;25.90;;;20.17;;
2099;SDS011;1055;48.854;9.302;2022-11-12T16:21:40;26.42;;;21.23;;
2099;SDS011;1055;48.854;9.302;2022-11-12T16:24:06;20.67;;;17.23;;
2099;SDS011;1055;48.854;9.302;2022-11-12T16:26:32;19.80;;;16.77;;
2099;SDS011;1055;48.854;9.302;2022-11-12T16:28:58;19.60;;;16.50;;
2099;SDS011;1055;48.854;9.302;2022-11-12T16:31:24;19.38;;;17.25;;
2099;SDS011;1055;48.854;9.302;2022-11-12T16:33:50;21.13;;;18.63;;
2099;SDS011;1055;48.854;9.302;2022-11-12T16:36:16;20.20;;;18.00;;
2099;SDS011;1055;48.854;9.302;2022-11-12T16:38:42;21.80;;;18.83;;
2099;SDS011;1055;48.854;9.302;2022-11-12T16:41:10;22.95;;;18.00;;
2099;SDS011;1055;48.854;9.302;2022-11-12T16:43:37;21.00;;;17.55;;
2099;SDS011;1055;48.854;9.302;2022-11-12T16:46:05;23.73;;;19.70;;
2099;SDS011;1055;48.854;9.302;2022-11-12T16:48:38;24.15;;;19.50;;
2099;SDS011;1055;48.854;9.302;2022-11-12T16:51:04;33.07;;;26.43;;
2099;SDS011;1055;48.854;9.302;2022-11-12T16:53:30;20.43;;;17.67;;
2099;SDS011;1055;48.854;9.302;2022-11-12T16:55:56;18.23;;;16.20;;
2099;SDS011;1055;48.854;9.302;2022-11-12T16:58:21;23.58;;;17.63;;
2099;SDS011;1055;48.854;9.302;2022-11-12T17:00:47;18.43;;;15.87;;
2099;SDS011;1055;48.854;9.302;2022-11-12T17:03:16;24.98;;;19.33;;
2099;SDS011;1055;48.854;9.302;2022-11-12T17:05:42;22.13;;;18.00;;
2099;SDS011;1055;48.854;9.302;2022-11-12T17:08:08;21.83;;;18.63;;
2099;SDS011;1055;48.854;9.302;2022-11-12T17:10:34;20.60;;;18.27;;
2099;SDS011;1055;48.854;9.302;2022-11-12T17:13:00;21.27;;;18.30;;